Time,TemperatureF,DewpointF,PressureIn,WindDirection,WindDirectionDegrees,WindSpeedMPH,WindSpeedGustMPH,Humidity,HourlyPrecipIn,Conditions,Clouds,dailyrainin,SoftwareType,DateUTC
2013-02-12 00:01:00,22.3,4.1,30.03,North,0,0.0,0.0,45,0.00,RA,OVC,0.00,WeatherDisplay:10.37,2013-02-12 06:01:00,
2013-02-12 00:06:00,22.3,3.6,30.03,North,0,0.0,0.0,44,0.00,RA,OVC,0.00,WeatherDisplay:10.37,2013-02-12 06:06:00,
2013-02-12 00:11:00,22.5,3.8,30.03,North,0,0.0,0.0,44,0.00,,OVC,0.00,WeatherDisplay:10.37,2013-02-12 06:11:00,
2013-02-12 00:16:00,22.5,3.8,30.04,North,0,0.0,0.0,44,0.00,,OVC,0.00,WeatherDisplay:10.37,2013-02-12 06:16:00,
2013-02-12 00:21:00,22.5,3.8,30.04,North,0,0.0,0.0,44,0.00,,OVC,0.00,WeatherDisplay:10.37,2013-02-12 06:21:00,
2013-02-12 00:26:00,22.6,1.4,30.04,North,0,0.0,0.0,39,0.00,,OVC,0.00,WeatherDisplay:10.37,2013-02-12 06:26:00,
2013-02-12 00:31:00,22.6,2.4,30.04,North,0,0.0,0.0,41,0.00,,OVC,0.00,WeatherDisplay:10.37,2013-02-12 06:31:00,
2013-02-12 00:36:00,22.6,2.4,30.05,North,0,0.0,0.0,41,0.00,,OVC,0.00,WeatherDisplay:10.37,2013-02-12 06:36:00,
2013-02-12 00:41:00,22.6,4.0,30.05,North,0,0.0,0.0,44,0.00,,OVC,0.00,WeatherDisplay:10.37,2013-02-12 06:41:00,
2013-02-12 00:46:00,22.6,3.0,30.05,North,0,0.0,0.0,42,0.00,,OVC,0.00,WeatherDisplay:10.37,2013-02-12 06:46:00,
2013-02-12 00:51:00,22.6,3.0,30.05,North,0,0.0,0.0,42,0.00,,OVC,0.00,WeatherDisplay:10.37,2013-02-12 06:51:00,
2013-02-12 00:56:00,22.6,1.9,30.05,North,0,0.0,0.0,40,0.00,,OVC,0.00,WeatherDisplay:10.37,2013-02-12 06:56:00,
2013-02-12 01:01:00,22.6,0.8,30.05,North,0,0.0,0.0,38,0.00,,OVC,0.00,WeatherDisplay:10.37,2013-02-12 07:01:00,
2013-02-12 01:06:00,22.8,1.0,30.05,North,0,0.0,0.0,38,0.00,,OVC,0.00,WeatherDisplay:10.37,2013-02-12 07:06:00,
2013-02-12 01:12:00,22.6,1.4,30.05,North,0,0.0,0.0,39,0.00,,OVC,0.00,WeatherDisplay:10.37,2013-02-12 07:12:00,
2013-02-12 01:17:00,22.6,1.9,30.05,North,0,0.0,0.0,40,0.00,,OVC,0.00,WeatherDisplay:10.37,2013-02-12 07:17:00,
2013-02-12 01:22:00,22.6,0.8,30.05,North,0,0.0,0.0,38,0.00,,OVC,0.00,WeatherDisplay:10.37,2013-02-12 07:22:00,
2013-02-12 01:27:00,22.6,1.4,30.05,North,0,0.0,0.0,39,0.00,,OVC,0.00,WeatherDisplay:10.37,2013-02-12 07:27:00,
2013-02-12 01:32:00,22.6,1.4,30.05,North,0,0.0,0.0,39,0.00,,OVC,0.00,WeatherDisplay:10.37,2013-02-12 07:32:00,
2013-02-12 01:37:00,22.6,2.4,30.05,North,0,0.0,0.0,41,0.00,,OVC,0.00,WeatherDisplay:10.37,2013-02-12 07:37:00,
2013-02-12 01:42:00,22.6,3.0,30.06,North,0,0.0,0.0,42,0.00,,OVC,0.00,WeatherDisplay:10.37,2013-02-12 07:42:00,
2013-02-12 01:47:00,22.5,2.8,30.06,North,0,0.0,0.0,42,0.00,,OVC,0.00,WeatherDisplay:10.37,2013-02-12 07:47:00,
2013-02-12 01:52:00,22.5,2.3,30.06,North,0,0.0,0.0,41,0.00,,OVC,0.00,WeatherDisplay:10.37,2013-02-12 07:52:00,
2013-02-12 01:57:00,22.5,2.8,30.06,North,0,0.0,0.0,42,0.00,,OVC,0.00,WeatherDisplay:10.37,2013-02-12 07:57:00,
2013-02-12 02:02:00,22.5,2.8,30.06,North,0,0.0,0.0,42,0.00,,OVC,0.00,WeatherDisplay:10.37,2013-02-12 08:02:00,
2013-02-12 02:07:00,22.5,3.3,30.06,North,0,0.0,0.0,43,0.00,,OVC,0.00,WeatherDisplay:10.37,2013-02-12 08:07:00,
2013-02-12 02:12:00,22.3,3.1,30.06,North,0,0.0,0.0,43,0.00,,OVC,0.00,WeatherDisplay:10.37,2013-02-12 08:12:00,
2013-02-12 02:17:00,22.3,3.6,30.06,North,0,0.0,0.0,44,0.00,,OVC,0.00,WeatherDisplay:10.37,2013-02-12 08:17:00,
2013-02-12 02:22:00,22.3,4.6,30.06,North,0,0.0,0.0,46,0.00,,OVC,0.00,WeatherDisplay:10.37,2013-02-12 08:22:00,
2013-02-12 02:27:00,22.3,4.1,30.06,North,0,0.0,0.0,45,0.00,,OVC,0.00,WeatherDisplay:10.37,2013-02-12 08:27:00,
2013-02-12 02:32:00,22.3,3.6,30.06,North,0,0.0,0.0,44,0.00,,OVC,0.00,WeatherDisplay:10.37,2013-02-12 08:32:00,
2013-02-12 02:37:00,22.1,3.5,30.06,North,0,0.0,0.0,44,0.00,,OVC,0.00,WeatherDisplay:10.37,2013-02-12 08:37:00,
2013-02-12 02:42:00,22.1,3.5,30.06,North,0,0.0,0.0,44,0.00,,OVC,0.00,WeatherDisplay:10.37,2013-02-12 08:42:00,
2013-02-12 02:47:00,21.9,5.2,30.06,North,0,0.0,0.0,48,0.00,,OVC,0.00,WeatherDisplay:10.37,2013-02-12 08:47:00,
2013-02-12 02:52:00,21.9,4.7,30.06,North,0,0.0,0.0,47,0.00,,OVC,0.00,WeatherDisplay:10.37,2013-02-12 08:52:00,
2013-02-12 02:57:00,21.9,5.7,30.05,North,0,0.0,0.0,49,0.00,,OVC,0.00,WeatherDisplay:10.37,2013-02-12 08:57:00,
2013-02-12 03:02:00,21.7,4.6,30.05,North,0,0.0,0.0,47,0.00,,OVC,0.00,WeatherDisplay:10.37,2013-02-12 09:02:00,
2013-02-12 03:07:00,21.6,5.8,30.05,North,0,0.0,0.0,50,0.00,,OVC,0.00,WeatherDisplay:10.37,2013-02-12 09:07:00,
2013-02-12 03:12:00,21.6,6.2,30.05,North,0,0.0,0.0,51,0.00,,OVC,0.00,WeatherDisplay:10.37,2013-02-12 09:12:00,
2013-02-12 03:17:00,21.7,5.0,30.05,North,0,0.0,0.0,48,0.00,,OVC,0.00,WeatherDisplay:10.37,2013-02-12 09:17:00,
2013-02-12 03:22:00,21.7,5.9,30.05,North,0,0.0,0.0,50,0.00,,OVC,0.00,WeatherDisplay:10.37,2013-02-12 09:22:00,
2013-02-12 03:27:00,21.7,5.0,30.05,North,0,0.0,0.0,48,0.00,,OVC,0.00,WeatherDisplay:10.37,2013-02-12 09:27:00,
2013-02-12 03:32:00,21.7,4.6,30.05,North,0,0.0,0.0,47,0.00,,OVC,0.00,WeatherDisplay:10.37,2013-02-12 09:32:00,
2013-02-12 03:37:00,21.7,3.6,30.05,North,0,0.0,0.0,45,0.00,,OVC,0.00,WeatherDisplay:10.37,2013-02-12 09:37:00,
2013-02-12 03:42:00,21.7,4.1,30.05,North,0,0.0,0.0,46,0.00,,OVC,0.00,WeatherDisplay:10.37,2013-02-12 09:42:00,
2013-02-12 03:47:00,21.7,3.1,30.05,North,0,0.0,0.0,44,0.00,,OVC,0.00,WeatherDisplay:10.37,2013-02-12 09:47:00,
2013-02-12 03:52:00,21.7,3.6,30.05,North,0,0.0,0.0,45,0.00,,OVC,0.00,WeatherDisplay:10.37,2013-02-12 09:52:00,
2013-02-12 03:57:00,21.6,6.2,30.05,North,0,0.0,0.0,51,0.00,,OVC,0.00,WeatherDisplay:10.37,2013-02-12 09:57:00,
2013-02-12 04:02:00,21.6,4.9,30.05,North,0,0.0,0.0,48,0.00,,OVC,0.00,WeatherDisplay:10.37,2013-02-12 10:02:00,
2013-02-12 04:07:00,21.4,5.6,30.05,North,0,0.0,0.0,50,0.00,,OVC,0.00,WeatherDisplay:10.37,2013-02-12 10:07:00,
2013-02-12 04:12:00,21.6,4.4,30.05,North,0,0.0,0.0,47,0.00,,OVC,0.00,WeatherDisplay:10.37,2013-02-12 10:12:00,
2013-02-12 04:17:00,21.6,3.9,30.05,North,0,0.0,0.0,46,0.00,,OVC,0.00,WeatherDisplay:10.37,2013-02-12 10:17:00,
2013-02-12 04:22:00,21.6,3.5,30.04,North,0,0.0,0.0,45,0.00,,OVC,0.00,WeatherDisplay:10.37,2013-02-12 10:22:00,
2013-02-12 04:27:00,21.7,3.1,30.04,North,0,0.0,0.0,44,0.00,,OVC,0.00,WeatherDisplay:10.37,2013-02-12 10:27:00,
2013-02-12 04:32:00,21.7,2.6,30.04,North,0,0.0,0.0,43,0.00,,OVC,0.00,WeatherDisplay:10.37,2013-02-12 10:32:00,
2013-02-12 04:37:00,21.7,2.6,30.04,North,0,0.0,0.0,43,0.00,,OVC,0.00,WeatherDisplay:10.37,2013-02-12 10:37:00,
2013-02-12 04:42:00,21.9,2.3,30.04,North,0,0.0,0.0,42,0.00,,OVC,0.00,WeatherDisplay:10.37,2013-02-12 10:42:00,
2013-02-12 04:47:00,21.9,2.8,30.04,North,0,0.0,0.0,43,0.00,,OVC,0.00,WeatherDisplay:10.37,2013-02-12 10:47:00,
2013-02-12 04:52:00,21.7,3.1,30.03,North,0,0.0,0.0,44,0.00,,OVC,0.00,WeatherDisplay:10.37,2013-02-12 10:52:00,
2013-02-12 04:57:00,21.9,3.3,30.03,North,0,0.0,0.0,44,0.00,,OVC,0.00,WeatherDisplay:10.37,2013-02-12 10:57:00,
2013-02-12 05:03:00,21.9,3.3,30.03,North,0,0.0,0.0,44,0.00,,OVC,0.00,WeatherDisplay:10.37,2013-02-12 11:03:00,
2013-02-12 05:08:00,21.9,2.8,30.03,North,0,0.0,0.0,43,0.00,,OVC,0.00,WeatherDisplay:10.37,2013-02-12 11:08:00,
2013-02-12 05:13:00,21.9,2.8,30.03,North,0,0.0,0.0,43,0.00,,OVC,0.00,WeatherDisplay:10.37,2013-02-12 11:13:00,
2013-02-12 05:18:00,21.9,2.8,30.03,North,0,0.0,0.0,43,0.00,,OVC,0.00,WeatherDisplay:10.37,2013-02-12 11:18:00,
2013-02-12 05:23:00,22.1,3.0,30.03,North,0,0.0,0.0,43,0.00,,OVC,0.00,WeatherDisplay:10.37,2013-02-12 11:23:00,
2013-02-12 05:28:00,22.1,3.0,30.03,North,0,0.0,0.0,43,0.00,,OVC,0.00,WeatherDisplay:10.37,2013-02-12 11:28:00,
2013-02-12 05:33:00,22.1,1.9,30.03,North,0,0.0,0.0,41,0.00,,OVC,0.00,WeatherDisplay:10.37,2013-02-12 11:33:00,
2013-02-12 05:38:00,22.3,2.1,30.03,North,0,0.0,0.0,41,0.00,,OVC,0.00,WeatherDisplay:10.37,2013-02-12 11:38:00,
2013-02-12 05:43:00,22.3,2.1,30.03,North,0,0.0,0.0,41,0.00,,OVC,0.00,WeatherDisplay:10.37,2013-02-12 11:43:00,
2013-02-12 05:48:00,22.3,1.6,30.03,North,0,0.0,0.0,40,0.00,,OVC,0.00,WeatherDisplay:10.37,2013-02-12 11:48:00,
2013-02-12 05:53:00,22.5,2.3,30.02,North,0,0.0,0.0,41,0.00,,OVC,0.00,WeatherDisplay:10.37,2013-02-12 11:53:00,
2013-02-12 05:58:00,22.5,1.7,30.02,North,0,0.0,0.0,40,0.00,,OVC,0.00,WeatherDisplay:10.37,2013-02-12 11:58:00,
2013-02-12 06:03:00,22.5,2.3,30.02,North,0,0.0,0.0,41,0.00,,OVC,0.00,WeatherDisplay:10.37,2013-02-12 12:03:00,
2013-02-12 06:08:00,22.5,1.7,30.02,North,0,0.0,0.0,40,0.00,,OVC,0.00,WeatherDisplay:10.37,2013-02-12 12:08:00,
2013-02-12 06:13:00,22.5,2.3,30.02,North,0,0.0,0.0,41,0.00,,OVC,0.00,WeatherDisplay:10.37,2013-02-12 12:13:00,
2013-02-12 06:18:00,22.5,2.3,30.02,North,0,0.0,0.0,41,0.00,,OVC,0.00,WeatherDisplay:10.37,2013-02-12 12:18:00,
2013-02-12 06:23:00,22.5,1.7,30.02,North,0,0.0,0.0,40,0.00,,OVC,0.00,WeatherDisplay:10.37,2013-02-12 12:23:00,
2013-02-12 06:28:00,22.6,1.9,30.02,North,0,0.0,0.0,40,0.00,,OVC,0.00,WeatherDisplay:10.37,2013-02-12 12:28:00,
2013-02-12 06:33:00,22.6,1.9,30.02,North,0,0.0,0.0,40,0.00,,OVC,0.00,WeatherDisplay:10.37,2013-02-12 12:33:00,
2013-02-12 06:38:00,22.6,1.4,30.02,North,0,0.0,0.0,39,0.00,,OVC,0.00,WeatherDisplay:10.37,2013-02-12 12:38:00,
2013-02-12 06:43:00,22.6,1.4,30.02,North,0,0.0,0.0,39,0.00,,OVC,0.00,WeatherDisplay:10.37,2013-02-12 12:43:00,
2013-02-12 06:48:00,22.6,1.4,30.03,North,0,0.0,0.0,39,0.00,,OVC,0.00,WeatherDisplay:10.37,2013-02-12 12:48:00,
2013-02-12 06:53:00,22.6,1.4,30.03,North,0,0.0,0.0,39,0.00,,OVC,0.00,WeatherDisplay:10.37,2013-02-12 12:53:00,
2013-02-12 06:58:00,22.6,1.4,30.03,North,0,0.0,0.0,39,0.00,,OVC,0.00,WeatherDisplay:10.37,2013-02-12 12:58:00,
2013-02-12 07:03:00,22.8,1.0,30.03,North,0,0.0,0.0,38,0.00,,OVC,0.00,WeatherDisplay:10.37,2013-02-12 13:03:00,
2013-02-12 07:08:00,22.8,1.5,30.04,North,0,0.0,0.0,39,0.00,,OVC,0.00,WeatherDisplay:10.37,2013-02-12 13:08:00,
2013-02-12 07:13:00,22.8,1.0,30.04,North,0,0.0,0.0,38,0.00,,OVC,0.00,WeatherDisplay:10.37,2013-02-12 13:13:00,
2013-02-12 07:18:00,22.8,1.0,30.04,North,0,0.0,0.0,38,0.00,,OVC,0.00,WeatherDisplay:10.37,2013-02-12 13:18:00,
2013-02-12 07:23:00,23.0,0.6,30.04,North,0,0.0,0.0,37,0.00,,OVC,0.00,WeatherDisplay:10.37,2013-02-12 13:23:00,
2013-02-12 07:28:00,23.0,0.6,30.04,North,0,0.0,0.0,37,0.00,,OVC,0.00,WeatherDisplay:10.37,2013-02-12 13:28:00,
2013-02-12 07:33:00,23.0,0.6,30.04,North,0,0.0,0.0,37,0.00,,OVC,0.00,WeatherDisplay:10.37,2013-02-12 13:33:00,
2013-02-12 07:38:00,23.0,0.0,30.04,North,0,0.0,0.0,36,0.00,,OVC,0.00,WeatherDisplay:10.37,2013-02-12 13:38:00,
2013-02-12 07:43:00,23.2,0.1,30.04,North,0,0.0,0.0,36,0.00,,OVC,0.00,WeatherDisplay:10.37,2013-02-12 13:43:00,
2013-02-12 07:48:00,23.2,0.1,30.04,North,0,0.0,0.0,36,0.00,,OVC,0.00,WeatherDisplay:10.37,2013-02-12 13:48:00,
2013-02-12 07:53:00,23.4,-0.3,30.04,North,0,0.0,0.0,35,0.00,,OVC,0.00,WeatherDisplay:10.37,2013-02-12 13:53:00,
2013-02-12 07:58:00,23.4,-0.3,30.04,North,0,0.0,0.0,35,0.00,,OVC,0.00,WeatherDisplay:10.37,2013-02-12 13:58:00,
2013-02-12 08:03:00,23.5,0.5,30.04,North,0,0.0,0.0,36,0.00,,OVC,0.00,WeatherDisplay:10.37,2013-02-12 14:03:00,
2013-02-12 08:08:00,23.7,0.6,30.04,North,0,0.0,0.0,36,0.00,,OVC,0.00,WeatherDisplay:10.37,2013-02-12 14:08:00,
2013-02-12 08:13:00,23.7,0.6,30.03,North,0,0.0,0.0,36,0.00,,OVC,0.00,WeatherDisplay:10.37,2013-02-12 14:13:00,
2013-02-12 08:18:00,23.9,0.2,30.03,North,0,0.0,0.0,35,0.00,,OVC,0.00,WeatherDisplay:10.37,2013-02-12 14:18:00,
2013-02-12 08:23:00,24.1,-0.3,30.03,North,0,0.0,0.0,34,0.00,,OVC,0.00,WeatherDisplay:10.37,2013-02-12 14:23:00,
2013-02-12 08:28:00,24.4,0.0,30.03,North,0,0.0,0.0,34,0.00,,OVC,0.00,WeatherDisplay:10.37,2013-02-12 14:28:00,
2013-02-12 08:33:00,24.8,0.4,30.03,North,0,0.0,0.0,34,0.00,,OVC,0.00,WeatherDisplay:10.37,2013-02-12 14:33:00,
2013-02-12 08:38:00,24.8,0.4,30.03,North,0,0.0,0.0,34,0.00,,OVC,0.00,WeatherDisplay:10.37,2013-02-12 14:38:00,
2013-02-12 08:43:00,25.3,0.2,30.03,North,0,0.0,0.0,33,0.00,,OVC,0.00,WeatherDisplay:10.37,2013-02-12 14:43:00,
2013-02-12 08:48:00,25.9,0.0,30.03,North,0,0.0,0.0,32,0.00,,OVC,0.00,WeatherDisplay:10.37,2013-02-12 14:48:00,
2013-02-12 08:53:00,26.2,0.3,30.03,North,0,0.0,0.0,32,0.00,,OVC,0.00,WeatherDisplay:10.37,2013-02-12 14:53:00,
2013-02-12 08:58:00,26.4,0.5,30.03,North,0,0.0,0.0,32,0.00,,OVC,0.00,WeatherDisplay:10.37,2013-02-12 14:58:00,
2013-02-12 09:03:00,26.6,2.0,30.03,North,0,0.0,0.0,34,0.00,,OVC,0.00,WeatherDisplay:10.37,2013-02-12 15:03:00,
2013-02-12 09:08:00,26.6,3.2,30.02,North,0,0.0,0.0,36,0.00,,OVC,0.00,WeatherDisplay:10.37,2013-02-12 15:08:00,
2013-02-12 09:13:00,27.0,2.9,30.03,North,0,0.0,0.0,35,0.00,,OVC,0.00,WeatherDisplay:10.37,2013-02-12 15:13:00,
2013-02-12 09:18:00,27.1,4.3,30.02,North,0,0.0,0.0,37,0.00,,OVC,0.00,WeatherDisplay:10.37,2013-02-12 15:18:00,
2013-02-12 09:23:00,27.7,4.8,30.02,North,0,0.0,0.0,37,0.00,,OVC,0.00,WeatherDisplay:10.37,2013-02-12 15:23:00,
2013-02-12 09:28:00,27.7,4.8,30.01,North,0,0.0,0.0,37,0.00,,OVC,0.00,WeatherDisplay:10.37,2013-02-12 15:28:00,
2013-02-12 09:33:00,27.9,6.1,30.01,North,0,0.0,0.0,39,0.00,,OVC,0.00,WeatherDisplay:10.37,2013-02-12 15:33:00,
2013-02-12 09:38:00,27.9,6.1,30.01,North,0,0.0,0.0,39,0.00,,OVC,0.00,WeatherDisplay:10.37,2013-02-12 15:38:00,
2013-02-12 09:43:00,28.2,6.4,30.01,North,0,0.0,0.0,39,0.00,,OVC,0.00,WeatherDisplay:10.37,2013-02-12 15:43:00,
2013-02-12 09:49:00,28.2,8.0,30.01,North,0,0.0,0.0,42,0.00,,OVC,0.00,WeatherDisplay:10.37,2013-02-12 15:49:00,
2013-02-12 09:54:00,28.4,8.7,30.01,North,0,0.0,0.0,43,0.00,,OVC,0.00,WeatherDisplay:10.37,2013-02-12 15:54:00,
2013-02-12 09:59:00,28.4,8.7,30.01,North,0,0.0,0.0,43,0.00,,OVC,0.00,WeatherDisplay:10.37,2013-02-12 15:59:00,
2013-02-12 10:04:00,28.8,9.0,30.00,North,0,0.0,0.0,43,0.00,,OVC,0.00,WeatherDisplay:10.37,2013-02-12 16:04:00,
2013-02-12 10:09:00,28.9,10.2,30.01,North,0,0.0,0.0,45,0.00,,OVC,0.00,WeatherDisplay:10.37,2013-02-12 16:09:00,
2013-02-12 10:14:00,28.9,10.2,30.00,North,0,0.0,0.0,45,0.00,,OVC,0.00,WeatherDisplay:10.37,2013-02-12 16:14:00,
2013-02-12 10:19:00,29.1,10.4,30.00,North,0,0.0,0.0,45,0.00,,OVC,0.00,WeatherDisplay:10.37,2013-02-12 16:19:00,
2013-02-12 10:24:00,29.3,11.1,30.00,North,0,0.0,0.0,46,0.00,,OVC,0.00,WeatherDisplay:10.37,2013-02-12 16:24:00,
2013-02-12 10:29:00,29.5,11.7,30.00,North,0,0.0,0.0,47,0.00,,OVC,0.00,WeatherDisplay:10.37,2013-02-12 16:29:00,
2013-02-12 10:34:00,29.7,12.8,30.00,North,0,0.0,0.0,49,0.00,,OVC,0.00,WeatherDisplay:10.37,2013-02-12 16:34:00,
2013-02-12 10:39:00,29.8,12.5,30.00,North,0,0.0,0.0,48,0.00,,OVC,0.00,WeatherDisplay:10.37,2013-02-12 16:39:00,
2013-02-12 10:44:00,30.0,13.1,30.01,North,0,0.0,0.0,49,0.00,,OVC,0.00,WeatherDisplay:10.37,2013-02-12 16:44:00,
2013-02-12 10:49:00,30.4,13.9,30.01,North,0,0.0,0.0,50,0.00,,OVC,0.00,WeatherDisplay:10.37,2013-02-12 16:49:00,
2013-02-12 10:54:00,30.4,14.4,30.00,North,0,0.0,0.0,51,0.00,,OVC,0.00,WeatherDisplay:10.37,2013-02-12 16:54:00,
2013-02-12 10:59:00,30.6,13.6,30.00,North,0,0.0,0.0,49,0.00,,OVC,0.00,WeatherDisplay:10.37,2013-02-12 16:59:00,
2013-02-12 11:04:00,30.7,14.3,30.01,North,0,0.0,0.0,50,0.00,,OVC,0.00,WeatherDisplay:10.37,2013-02-12 17:04:00,
2013-02-12 11:09:00,30.7,15.6,30.01,North,0,0.0,0.0,53,0.00,,OVC,0.00,WeatherDisplay:10.37,2013-02-12 17:09:00,
2013-02-12 11:14:00,30.9,14.9,30.01,North,0,0.0,0.0,51,0.00,,OVC,0.00,WeatherDisplay:10.37,2013-02-12 17:14:00,
2013-02-12 11:19:00,31.3,15.7,30.01,North,0,0.0,0.0,52,0.00,,OVC,0.00,WeatherDisplay:10.37,2013-02-12 17:19:00,
2013-02-12 11:24:00,31.3,16.1,30.01,North,0,0.0,0.0,53,0.00,,OVC,0.00,WeatherDisplay:10.37,2013-02-12 17:24:00,
2013-02-12 11:29:00,31.3,17.4,30.00,North,0,0.0,0.0,56,0.00,,OVC,0.00,WeatherDisplay:10.37,2013-02-12 17:29:00,
2013-02-12 11:34:00,31.3,18.6,30.00,North,0,0.0,0.0,59,0.00,,OVC,0.00,WeatherDisplay:10.37,2013-02-12 17:34:00,
2013-02-12 11:39:00,31.5,17.6,29.99,North,0,0.0,0.0,56,0.00,,OVC,0.00,WeatherDisplay:10.37,2013-02-12 17:39:00,
2013-02-12 11:44:00,31.6,17.7,29.99,North,0,0.0,0.0,56,0.00,,OVC,0.00,WeatherDisplay:10.37,2013-02-12 17:44:00,
2013-02-12 11:49:00,31.6,17.7,29.99,North,0,0.0,0.0,56,0.00,,OVC,0.00,WeatherDisplay:10.37,2013-02-12 17:49:00,
2013-02-12 11:54:00,31.8,18.3,29.98,North,0,0.0,0.0,57,0.00,,OVC,0.00,WeatherDisplay:10.37,2013-02-12 17:54:00,
2013-02-12 11:59:00,31.8,18.7,29.99,North,0,0.0,0.0,58,0.00,,OVC,0.00,WeatherDisplay:10.37,2013-02-12 17:59:00,
2013-02-12 12:04:00,31.8,19.5,29.98,North,0,0.0,0.0,60,0.00,,OVC,0.00,WeatherDisplay:10.37,2013-02-12 18:04:00,
2013-02-12 12:09:00,31.8,18.3,29.98,North,0,0.0,0.0,57,0.00,,OVC,0.00,WeatherDisplay:10.37,2013-02-12 18:09:00,
2013-02-12 12:14:00,32.0,18.1,29.98,North,0,0.0,0.0,56,0.00,,OVC,0.00,WeatherDisplay:10.37,2013-02-12 18:14:00,
2013-02-12 12:19:00,32.2,18.2,29.98,North,0,0.0,0.0,56,0.00,,OVC,0.00,WeatherDisplay:10.37,2013-02-12 18:19:00,
2013-02-12 12:24:00,32.4,18.8,29.97,North,0,0.0,0.0,57,0.00,,OVC,0.00,WeatherDisplay:10.37,2013-02-12 18:24:00,
2013-02-12 12:29:00,32.5,19.4,29.97,North,0,0.0,0.0,58,0.00,,OVC,0.00,WeatherDisplay:10.37,2013-02-12 18:29:00,
2013-02-12 12:34:00,32.5,18.6,29.97,North,0,0.0,0.0,56,0.00,,OVC,0.00,WeatherDisplay:10.37,2013-02-12 18:34:00,
2013-02-12 12:39:00,32.7,18.7,29.96,North,0,0.0,0.0,56,0.00,,OVC,0.00,WeatherDisplay:10.37,2013-02-12 18:39:00,
2013-02-12 12:44:00,32.7,19.1,29.96,North,0,0.0,0.0,57,0.00,,OVC,0.00,WeatherDisplay:10.37,2013-02-12 18:44:00,
2013-02-12 12:49:00,32.5,19.0,29.96,North,0,0.0,0.0,57,0.00,,OVC,0.00,WeatherDisplay:10.37,2013-02-12 18:49:00,
2013-02-12 12:54:00,32.7,18.7,29.96,North,0,0.0,0.0,56,0.00,,OVC,0.00,WeatherDisplay:10.37,2013-02-12 18:54:00,
2013-02-12 12:59:00,32.9,19.7,29.96,North,0,0.0,0.0,58,0.00,,OVC,0.00,WeatherDisplay:10.37,2013-02-12 18:59:00,
2013-02-12 13:04:00,32.9,19.7,29.96,North,0,0.0,0.0,58,0.00,,OVC,0.00,WeatherDisplay:10.37,2013-02-12 19:04:00,
2013-02-12 13:09:00,33.1,19.5,29.95,North,0,0.0,0.0,57,0.00,,OVC,0.00,WeatherDisplay:10.37,2013-02-12 19:09:00,
2013-02-12 13:14:00,33.3,19.7,29.95,North,0,0.0,0.0,57,0.00,,OVC,0.00,WeatherDisplay:10.37,2013-02-12 19:14:00,
2013-02-12 13:19:00,33.4,19.4,29.95,North,0,0.0,0.0,56,0.00,,OVC,0.00,WeatherDisplay:10.37,2013-02-12 19:19:00,
2013-02-12 13:24:00,33.4,20.6,29.94,North,0,0.0,0.0,59,0.00,,OVC,0.00,WeatherDisplay:10.37,2013-02-12 19:24:00,
2013-02-12 13:29:00,33.8,19.7,29.94,North,0,0.0,0.0,56,0.00,,OVC,0.00,WeatherDisplay:10.37,2013-02-12 19:29:00,
2013-02-12 13:34:00,33.8,19.7,29.94,North,0,0.0,0.0,56,0.00,,OVC,0.00,WeatherDisplay:10.37,2013-02-12 19:34:00,
2013-02-12 13:39:00,34.0,19.5,29.93,North,0,0.0,0.0,55,0.00,,OVC,0.00,WeatherDisplay:10.37,2013-02-12 19:39:00,
2013-02-12 13:44:00,33.8,20.2,29.93,North,0,0.0,0.0,57,0.00,,OVC,0.00,WeatherDisplay:10.37,2013-02-12 19:44:00,
2013-02-12 13:49:00,34.0,19.9,29.93,North,0,0.0,0.0,56,0.00,,OVC,0.00,WeatherDisplay:10.37,2013-02-12 19:49:00,
2013-02-12 13:54:00,34.0,20.3,29.93,North,0,0.0,0.0,57,0.00,,OVC,0.00,WeatherDisplay:10.37,2013-02-12 19:54:00,
2013-02-12 13:59:00,34.3,18.5,29.92,North,0,0.0,0.0,52,0.00,,OVC,0.00,WeatherDisplay:10.37,2013-02-12 19:59:00,
2013-02-12 14:04:00,34.0,19.9,29.92,North,0,0.0,0.0,56,0.00,,OVC,0.00,WeatherDisplay:10.37,2013-02-12 20:04:00,
2013-02-12 14:09:00,34.0,20.3,29.92,North,0,0.0,0.0,57,0.00,,OVC,0.00,WeatherDisplay:10.37,2013-02-12 20:09:00,
2013-02-12 14:14:00,34.2,20.5,29.91,North,0,0.0,0.0,57,0.00,,OVC,0.00,WeatherDisplay:10.37,2013-02-12 20:14:00,
2013-02-12 14:19:00,34.5,20.4,29.91,North,0,0.0,0.0,56,0.00,,OVC,0.00,WeatherDisplay:10.37,2013-02-12 20:19:00,
2013-02-12 14:25:00,34.7,21.8,29.91,North,0,0.0,0.0,59,0.00,,OVC,0.00,WeatherDisplay:10.37,2013-02-12 20:25:00,
2013-02-12 14:30:00,34.9,21.6,29.91,North,0,0.0,0.0,58,0.00,,OVC,0.00,WeatherDisplay:10.37,2013-02-12 20:30:00,
2013-02-12 14:35:00,35.1,22.2,29.91,North,0,0.0,0.0,59,0.00,,OVC,0.00,WeatherDisplay:10.37,2013-02-12 20:35:00,
2013-02-12 14:40:00,35.1,21.8,29.91,North,0,0.0,0.0,58,0.00,,OVC,0.00,WeatherDisplay:10.37,2013-02-12 20:40:00,
2013-02-12 14:45:00,35.1,21.8,29.91,North,0,0.0,0.0,58,0.00,,OVC,0.00,WeatherDisplay:10.37,2013-02-12 20:45:00,
2013-02-12 14:50:00,35.1,22.2,29.91,North,0,0.0,0.0,59,0.00,,OVC,0.00,WeatherDisplay:10.37,2013-02-12 20:50:00,
2013-02-12 14:55:00,35.1,21.8,29.91,North,0,0.0,0.0,58,0.00,,OVC,0.00,WeatherDisplay:10.37,2013-02-12 20:55:00,
2013-02-12 15:00:00,35.2,21.5,29.91,North,0,0.0,0.0,57,0.00,,OVC,0.00,WeatherDisplay:10.37,2013-02-12 21:00:00,
2013-02-12 15:05:00,35.2,21.5,29.91,North,0,0.0,0.0,57,0.00,,OVC,0.00,WeatherDisplay:10.37,2013-02-12 21:05:00,
2013-02-12 15:10:00,35.2,21.9,29.90,North,0,0.0,0.0,58,0.00,,OVC,0.00,WeatherDisplay:10.37,2013-02-12 21:10:00,
2013-02-12 15:15:00,35.2,21.5,29.91,North,0,0.0,0.0,57,0.00,,OVC,0.00,WeatherDisplay:10.37,2013-02-12 21:15:00,
2013-02-12 15:20:00,35.4,21.3,29.91,North,0,0.0,0.0,56,0.00,,OVC,0.00,WeatherDisplay:10.37,2013-02-12 21:20:00,
2013-02-12 15:25:00,35.4,21.3,29.90,North,0,0.0,0.0,56,0.00,,OVC,0.00,WeatherDisplay:10.37,2013-02-12 21:25:00,
2013-02-12 15:30:00,35.4,20.8,29.90,North,0,0.0,0.0,55,0.00,,OVC,0.00,WeatherDisplay:10.37,2013-02-12 21:30:00,
2013-02-12 15:35:00,35.6,21.0,29.91,North,0,0.0,0.0,55,0.00,,OVC,0.00,WeatherDisplay:10.37,2013-02-12 21:35:00,
2013-02-12 15:40:00,35.8,21.2,29.90,North,0,0.0,0.0,55,0.00,,OVC,0.00,WeatherDisplay:10.37,2013-02-12 21:40:00,
2013-02-12 15:45:00,36.0,21.3,29.90,North,0,0.0,0.0,55,0.00,,OVC,0.00,WeatherDisplay:10.37,2013-02-12 21:45:00,
2013-02-12 15:50:00,36.1,21.5,29.90,North,0,0.0,0.0,55,0.00,,OVC,0.00,WeatherDisplay:10.37,2013-02-12 21:50:00,
2013-02-12 15:55:00,36.1,21.9,29.90,North,0,0.0,0.0,56,0.00,,OVC,0.00,WeatherDisplay:10.37,2013-02-12 21:55:00,
2013-02-12 16:00:00,36.1,21.9,29.90,North,0,0.0,0.0,56,0.00,,OVC,0.00,WeatherDisplay:10.37,2013-02-12 22:00:00,
2013-02-12 16:05:00,36.3,22.1,29.89,North,0,0.0,0.0,56,0.00,,OVC,0.00,WeatherDisplay:10.37,2013-02-12 22:05:00,
2013-02-12 16:10:00,36.3,22.1,29.89,North,0,0.0,0.0,56,0.00,,OVC,0.00,WeatherDisplay:10.37,2013-02-12 22:10:00,
2013-02-12 16:15:00,36.3,21.7,29.89,North,0,0.0,0.0,55,0.00,,OVC,0.00,WeatherDisplay:10.37,2013-02-12 22:15:00,
2013-02-12 16:20:00,36.7,21.6,29.89,North,0,0.0,0.0,54,0.00,,OVC,0.00,WeatherDisplay:10.37,2013-02-12 22:20:00,
2013-02-12 16:25:00,36.5,21.4,29.89,North,0,0.0,0.0,54,0.00,,OVC,0.00,WeatherDisplay:10.37,2013-02-12 22:25:00,
2013-02-12 16:30:00,36.7,21.6,29.88,North,0,0.0,0.0,54,0.00,,OVC,0.00,WeatherDisplay:10.37,2013-02-12 22:30:00,
2013-02-12 16:35:00,36.7,22.4,29.88,North,0,0.0,0.0,56,0.00,,OVC,0.00,WeatherDisplay:10.37,2013-02-12 22:35:00,
2013-02-12 16:40:00,36.3,22.1,29.88,North,0,0.0,0.0,56,0.00,,OVC,0.00,WeatherDisplay:10.37,2013-02-12 22:40:00,
2013-02-12 16:45:00,36.1,21.9,29.88,North,0,0.0,0.0,56,0.00,,OVC,0.00,WeatherDisplay:10.37,2013-02-12 22:45:00,
2013-02-12 16:50:00,36.3,21.7,29.87,North,0,0.0,0.0,55,0.00,,OVC,0.00,WeatherDisplay:10.37,2013-02-12 22:50:00,
2013-02-12 16:55:00,36.0,21.8,29.87,North,0,0.0,0.0,56,0.00,,OVC,0.00,WeatherDisplay:10.37,2013-02-12 22:55:00,
2013-02-12 17:00:00,35.6,20.6,29.87,North,0,0.0,0.0,54,0.00,,OVC,0.00,WeatherDisplay:10.37,2013-02-12 23:00:00,
2013-02-12 17:05:00,35.2,18.0,29.87,North,0,0.0,0.0,49,0.00,,OVC,0.00,WeatherDisplay:10.37,2013-02-12 23:05:00,
2013-02-12 17:10:00,34.7,16.0,29.87,North,0,0.0,0.0,46,0.00,,OVC,0.00,WeatherDisplay:10.37,2013-02-12 23:10:00,
2013-02-12 17:15:00,34.3,14.1,29.87,North,0,0.0,0.0,43,0.00,,OVC,0.00,WeatherDisplay:10.37,2013-02-12 23:15:00,
2013-02-12 17:20:00,34.2,12.9,29.87,North,0,0.0,0.0,41,0.00,,OVC,0.00,WeatherDisplay:10.37,2013-02-12 23:20:00,
2013-02-12 17:25:00,33.8,12.6,29.87,North,0,0.0,0.0,41,0.00,,OVC,0.00,WeatherDisplay:10.37,2013-02-12 23:25:00,
2013-02-12 17:30:00,34.0,13.3,29.87,North,0,0.0,0.0,42,0.00,,OVC,0.00,WeatherDisplay:10.37,2013-02-12 23:30:00,
2013-02-12 17:35:00,34.0,14.3,29.87,North,0,0.0,0.0,44,0.00,,OVC,0.00,WeatherDisplay:10.37,2013-02-12 23:35:00,
2013-02-12 17:40:00,33.6,12.9,29.87,North,0,0.0,0.0,42,0.00,,OVC,0.00,WeatherDisplay:10.37,2013-02-12 23:40:00,
2013-02-12 17:45:00,33.3,12.6,29.87,North,0,0.0,0.0,42,0.00,,OVC,0.00,WeatherDisplay:10.37,2013-02-12 23:45:00,
2013-02-12 17:50:00,33.1,10.8,29.87,North,0,0.0,0.0,39,0.00,,OVC,0.00,WeatherDisplay:10.37,2013-02-12 23:50:00,
2013-02-12 17:55:00,32.7,9.3,29.87,North,0,0.0,0.0,37,0.00,,OVC,0.00,WeatherDisplay:10.37,2013-02-12 23:55:00,
2013-02-12 18:00:00,32.7,8.7,29.87,North,0,0.0,0.0,36,0.00,,OVC,0.00,WeatherDisplay:10.37,2013-02-13 00:00:00,
2013-02-12 18:05:00,32.5,6.6,29.87,North,0,0.0,0.0,33,0.00,,OVC,0.00,WeatherDisplay:10.37,2013-02-13 00:05:00,
2013-02-12 18:10:00,32.5,5.9,29.87,North,0,0.0,0.0,32,0.00,,OVC,0.00,WeatherDisplay:10.37,2013-02-13 00:10:00,
2013-02-12 18:15:00,32.5,7.2,29.87,North,0,0.0,0.0,34,0.00,,OVC,0.00,WeatherDisplay:10.37,2013-02-13 00:15:00,
2013-02-12 18:20:00,32.7,8.7,29.87,North,0,0.0,0.0,36,0.00,,OVC,0.00,WeatherDisplay:10.37,2013-02-13 00:20:00,
2013-02-12 18:25:00,32.5,9.1,29.87,North,0,0.0,0.0,37,0.00,,OVC,0.00,WeatherDisplay:10.37,2013-02-13 00:25:00,
2013-02-12 18:30:00,32.5,9.1,29.87,North,0,0.0,0.0,37,0.00,,OVC,0.00,WeatherDisplay:10.37,2013-02-13 00:30:00,
2013-02-12 18:35:00,32.5,9.1,29.87,North,0,0.0,0.0,37,0.00,,OVC,0.00,WeatherDisplay:10.37,2013-02-13 00:35:00,
2013-02-12 18:40:00,32.5,9.7,29.87,North,0,0.0,0.0,38,0.00,,OVC,0.00,WeatherDisplay:10.37,2013-02-13 00:40:00,
2013-02-12 18:45:00,32.5,9.1,29.87,North,0,0.0,0.0,37,0.00,,OVC,0.00,WeatherDisplay:10.37,2013-02-13 00:45:00,
2013-02-12 18:50:00,32.5,9.1,29.87,North,0,0.0,0.0,37,0.00,,OVC,0.00,WeatherDisplay:10.37,2013-02-13 00:50:00,
2013-02-12 18:55:00,32.5,9.1,29.87,North,0,0.0,0.0,37,0.00,,OVC,0.00,WeatherDisplay:10.37,2013-02-13 00:55:00,
2013-02-12 19:00:00,32.2,9.4,29.87,North,0,0.0,0.0,38,0.00,,OVC,0.00,WeatherDisplay:10.37,2013-02-13 01:00:00,
2013-02-12 19:05:00,32.0,8.6,29.87,North,0,0.0,0.0,37,0.00,,OVC,0.00,WeatherDisplay:10.37,2013-02-13 01:05:00,
2013-02-12 19:10:00,31.8,4.6,29.87,North,0,0.0,0.0,31,0.00,,OVC,0.00,WeatherDisplay:10.37,2013-02-13 01:10:00,
2013-02-12 19:15:00,31.8,5.3,29.86,North,0,0.0,0.0,32,0.00,,OVC,0.00,WeatherDisplay:10.37,2013-02-13 01:15:00,
2013-02-12 19:20:00,31.6,3.7,29.86,North,0,0.0,0.0,30,0.00,,OVC,0.00,WeatherDisplay:10.37,2013-02-13 01:20:00,
2013-02-12 19:25:00,31.5,2.8,29.86,North,0,0.0,0.0,29,0.00,,OVC,0.00,WeatherDisplay:10.37,2013-02-13 01:25:00,
2013-02-12 19:31:00,31.3,1.9,29.86,North,0,0.0,0.0,28,0.00,,OVC,0.00,WeatherDisplay:10.37,2013-02-13 01:31:00,
2013-02-12 19:36:00,31.1,1.7,29.86,North,0,0.0,0.0,28,0.00,,OVC,0.00,WeatherDisplay:10.37,2013-02-13 01:36:00,
2013-02-12 19:41:00,30.9,-1.7,29.86,North,0,0.0,0.0,24,0.00,,OVC,0.00,WeatherDisplay:10.37,2013-02-13 01:41:00,
2013-02-12 19:46:00,30.9,0.0,29.86,North,0,0.0,0.0,26,0.00,,OVC,0.00,WeatherDisplay:10.37,2013-02-13 01:46:00,
2013-02-12 19:51:00,30.7,-1.9,29.86,North,0,0.0,0.0,24,0.00,,OVC,0.00,WeatherDisplay:10.37,2013-02-13 01:51:00,
2013-02-12 19:56:00,30.7,-2.8,29.86,North,0,0.0,0.0,23,0.00,,OVC,0.00,WeatherDisplay:10.37,2013-02-13 01:56:00,
2013-02-12 20:01:00,30.7,-3.7,29.86,North,0,0.0,0.0,22,0.00,,OVC,0.00,WeatherDisplay:10.37,2013-02-13 02:01:00,
2013-02-12 20:06:00,30.7,-1.0,29.86,North,0,0.0,0.0,25,0.00,,OVC,0.00,WeatherDisplay:10.37,2013-02-13 02:06:00,
2013-02-12 20:11:00,30.9,-0.8,29.86,North,0,0.0,0.0,25,0.00,,OVC,0.00,WeatherDisplay:10.37,2013-02-13 02:11:00,
2013-02-12 20:16:00,30.9,-1.7,29.85,North,0,0.0,0.0,24,0.00,,OVC,0.00,WeatherDisplay:10.37,2013-02-13 02:16:00,
2013-02-12 20:21:00,30.9,-3.5,29.85,North,0,0.0,0.0,22,0.00,,OVC,0.00,WeatherDisplay:10.37,2013-02-13 02:21:00,
2013-02-12 20:26:00,30.7,-0.2,29.85,North,0,0.0,0.0,26,0.00,,OVC,0.00,WeatherDisplay:10.37,2013-02-13 02:26:00,
2013-02-12 20:31:00,30.6,-2.9,29.85,North,0,0.0,0.0,23,0.00,,OVC,0.00,WeatherDisplay:10.37,2013-02-13 02:31:00,
2013-02-12 20:36:00,30.6,-3.9,29.85,North,0,0.0,0.0,22,0.00,,OVC,0.00,WeatherDisplay:10.37,2013-02-13 02:36:00,
2013-02-12 20:41:00,30.6,-4.8,29.85,North,0,0.0,0.0,21,0.00,,OVC,0.00,WeatherDisplay:10.37,2013-02-13 02:41:00,
2013-02-12 20:46:00,30.2,-3.2,29.85,North,0,0.0,0.0,23,0.00,,OVC,0.00,WeatherDisplay:10.37,2013-02-13 02:46:00,
2013-02-12 20:51:00,30.2,-8.3,29.85,North,0,0.0,0.0,18,0.00,,OVC,0.00,WeatherDisplay:10.37,2013-02-13 02:51:00,
2013-02-12 20:56:00,29.8,-5.4,29.85,North,0,0.0,0.0,21,0.00,,OVC,0.00,WeatherDisplay:10.37,2013-02-13 02:56:00,
2013-02-12 21:01:00,29.8,-6.4,29.85,North,0,0.0,0.0,20,0.00,,OVC,0.00,WeatherDisplay:10.37,2013-02-13 03:01:00,
2013-02-12 21:06:00,29.7,-12.4,29.85,North,0,0.0,0.0,15,0.00,,OVC,0.00,WeatherDisplay:10.37,2013-02-13 03:06:00,
2013-02-12 21:11:00,29.7,-13.8,29.85,North,0,0.0,0.0,14,0.00,,OVC,0.00,WeatherDisplay:10.37,2013-02-13 03:11:00,
2013-02-12 21:16:00,29.7,-9.9,29.84,North,0,0.0,0.0,17,0.00,,OVC,0.00,WeatherDisplay:10.37,2013-02-13 03:16:00,
2013-02-12 21:21:00,29.7,-13.8,29.85,North,0,0.0,0.0,14,0.00,,OVC,0.00,WeatherDisplay:10.37,2013-02-13 03:21:00,
2013-02-12 21:26:00,29.8,-18.4,29.84,North,0,0.0,0.0,11,0.00,,OVC,0.00,WeatherDisplay:10.37,2013-02-13 03:26:00,
2013-02-12 21:31:00,29.8,-18.4,29.84,North,0,0.0,0.0,11,0.00,,OVC,0.00,WeatherDisplay:10.37,2013-02-13 03:31:00,
2013-02-12 21:36:00,29.8,-16.7,29.84,North,0,0.0,0.0,12,0.00,,OVC,0.00,WeatherDisplay:10.37,2013-02-13 03:36:00,
2013-02-12 21:41:00,29.7,-16.9,29.84,North,0,0.0,0.0,12,0.00,,OVC,0.00,WeatherDisplay:10.37,2013-02-13 03:41:00,
2013-02-12 21:46:00,29.7,-16.9,29.84,North,0,0.0,0.0,12,0.00,,OVC,0.00,WeatherDisplay:10.37,2013-02-13 03:46:00,
2013-02-12 21:51:00,29.5,-14.0,29.84,North,0,0.0,0.0,14,0.00,,OVC,0.00,WeatherDisplay:10.37,2013-02-13 03:51:00,
2013-02-12 21:56:00,29.5,-14.0,29.84,North,0,0.0,0.0,14,0.00,,OVC,0.00,WeatherDisplay:10.37,2013-02-13 03:56:00,
2013-02-12 22:01:00,29.3,-17.2,29.83,North,0,0.0,0.0,12,0.00,,OVC,0.00,WeatherDisplay:10.37,2013-02-13 04:01:00,
2013-02-12 22:06:00,29.3,-20.7,29.83,North,0,0.0,0.0,10,0.00,,OVC,0.00,WeatherDisplay:10.37,2013-02-13 04:06:00,
2013-02-12 22:11:00,29.3,-20.7,29.83,North,0,0.0,0.0,10,0.00,,OVC,0.00,WeatherDisplay:10.37,2013-02-13 04:11:00,
2013-02-12 22:16:00,29.3,-22.7,29.83,North,0,0.0,0.0,9,0.00,,OVC,0.00,WeatherDisplay:10.37,2013-02-13 04:16:00,
2013-02-12 22:21:00,29.1,-25.1,29.83,North,0,0.0,0.0,8,0.00,,OVC,0.00,WeatherDisplay:10.37,2013-02-13 04:21:00,
2013-02-12 22:26:00,29.1,-30.4,29.83,North,0,0.0,0.0,6,0.00,,OVC,0.00,WeatherDisplay:10.37,2013-02-13 04:26:00,
2013-02-12 22:31:00,29.1,-30.4,29.83,North,0,0.0,0.0,6,0.00,,OVC,0.00,WeatherDisplay:10.37,2013-02-13 04:31:00,
2013-02-12 22:36:00,29.1,-37.7,29.83,North,0,0.0,0.0,4,0.00,,OVC,0.00,WeatherDisplay:10.37,2013-02-13 04:36:00,
2013-02-12 22:41:00,28.9,-30.5,29.82,North,0,0.0,0.0,6,0.00,,OVC,0.00,WeatherDisplay:10.37,2013-02-13 04:41:00,
2013-02-12 22:46:00,28.8,-37.9,29.82,North,0,0.0,0.0,4,0.00,,OVC,0.00,WeatherDisplay:10.37,2013-02-13 04:46:00,
2013-02-12 22:51:00,28.8,-49.7,29.82,North,0,0.0,0.0,2,0.00,,OVC,0.00,WeatherDisplay:10.37,2013-02-13 04:51:00,
2013-02-12 22:56:00,28.4,-49.9,29.82,North,0,0.0,0.0,2,0.00,,OVC,0.00,WeatherDisplay:10.37,2013-02-13 04:56:00,
2013-02-12 23:00:00,28.4,-49.9,29.82,North,0,0.0,0.0,2,0.00,,OVC,0.00,WeatherDisplay:10.37,2013-02-13 05:00:00,
2013-02-12 23:05:00,28.0,-61.2,29.82,North,0,0.0,0.0,1,0.00,,OVC,0.00,WeatherDisplay:10.37,2013-02-13 05:05:00,
2013-02-12 23:10:00,27.9,-61.3,29.81,North,0,0.0,0.0,1,0.00,,OVC,0.00,WeatherDisplay:10.37,2013-02-13 05:10:00,
2013-02-12 23:15:00,27.9,-61.3,29.81,North,0,0.0,0.0,1,0.00,,OVC,0.00,WeatherDisplay:10.37,2013-02-13 05:15:00,
2013-02-12 23:20:00,27.9,-61.3,29.81,North,0,0.0,0.0,1,0.00,,OVC,0.00,WeatherDisplay:10.37,2013-02-13 05:20:00,
2013-02-12 23:25:00,27.7,-61.4,29.81,North,0,0.0,0.0,1,0.00,,OVC,0.00,WeatherDisplay:10.37,2013-02-13 05:25:00,
2013-02-12 23:30:00,27.7,-61.4,29.81,North,0,0.0,0.0,1,0.00,,OVC,0.00,WeatherDisplay:10.37,2013-02-13 05:30:00,
2013-02-12 23:35:00,27.7,-61.4,29.81,North,0,0.0,0.0,1,0.00,,OVC,0.00,WeatherDisplay:10.37,2013-02-13 05:35:00,
2013-02-12 23:40:00,27.7,-61.4,29.81,North,0,0.0,0.0,1,0.00,,OVC,0.00,WeatherDisplay:10.37,2013-02-13 05:40:00,
2013-02-12 23:45:00,27.7,-61.4,29.81,North,0,0.0,0.0,1,0.00,,OVC,0.00,WeatherDisplay:10.37,2013-02-13 05:45:00,
2013-02-12 23:50:00,27.7,-61.4,29.81,North,0,0.0,0.0,1,0.00,,OVC,0.00,WeatherDisplay:10.37,2013-02-13 05:50:00,
2013-02-12 23:55:00,27.7,-61.4,29.81,North,0,0.0,0.0,1,0.00,,OVC,0.00,WeatherDisplay:10.37,2013-02-13 05:55:00,